createdAt,value
2023-03-04T00:01:42.577Z,0.62
2023-03-04T00:04:09.173Z,0.42
2023-03-04T00:06:35.628Z,0.46
2023-03-04T00:09:03.981Z,0.58
2023-03-04T00:11:35.058Z,0.57
2023-03-04T00:14:04.443Z,0.42
2023-03-04T00:16:30.982Z,0.34
2023-03-04T00:18:58.145Z,0.23
2023-03-04T00:21:25.176Z,0.28
2023-03-04T00:23:51.833Z,0.32
2023-03-04T00:26:18.734Z,0.35
2023-03-04T00:28:45.304Z,0.37
2023-03-04T00:31:12.147Z,0.27
2023-03-04T00:33:40.202Z,0.23
2023-03-04T00:36:07.278Z,0.37
2023-03-04T00:38:33.783Z,0.56
2023-03-04T00:41:00.287Z,0.66
2023-03-04T00:43:26.804Z,0.58
2023-03-04T00:45:53.384Z,0.53
2023-03-04T00:48:22.538Z,0.72
2023-03-04T00:50:51.595Z,0.82
2023-03-04T00:53:18.058Z,0.86
2023-03-04T00:55:44.536Z,0.83
2023-03-04T00:58:11.062Z,0.71
2023-03-04T01:00:37.532Z,0.62
2023-03-04T01:03:04.113Z,0.75
2023-03-04T01:05:32.011Z,0.88
2023-03-04T01:07:58.444Z,0.90
2023-03-04T01:10:25.050Z,0.72
2023-03-04T01:13:00.179Z,0.51
2023-03-04T01:15:27.123Z,0.63
2023-03-04T01:17:53.690Z,0.79
2023-03-04T01:20:20.534Z,0.80
2023-03-04T01:22:47.145Z,0.64
2023-03-04T01:25:13.625Z,0.72
2023-03-04T01:27:50.621Z,0.86
2023-03-04T01:30:23.931Z,0.93
2023-03-04T01:33:04.502Z,0.68
2023-03-04T01:35:31.205Z,0.69
2023-03-04T01:37:57.826Z,0.81
2023-03-04T01:40:24.340Z,0.82
2023-03-04T01:42:51.037Z,0.74
2023-03-04T01:45:20.072Z,0.77
2023-03-04T01:47:49.115Z,0.84
2023-03-04T01:50:35.790Z,0.93
2023-03-04T01:53:06.178Z,1.00
2023-03-04T01:55:33.073Z,0.94
2023-03-04T01:57:59.647Z,1.01
2023-03-04T02:00:29.394Z,1.08
2023-03-04T02:03:02.270Z,0.90
2023-03-04T02:05:30.036Z,0.75
2023-03-04T02:07:59.370Z,0.79
2023-03-04T02:10:28.199Z,0.95
2023-03-04T02:12:54.965Z,1.06
2023-03-04T02:15:22.139Z,1.14
2023-03-04T02:17:48.877Z,1.20
2023-03-04T02:21:10.228Z,0.93
2023-03-04T02:23:56.746Z,0.97
2023-03-04T02:26:31.972Z,0.98
2023-03-04T02:29:00.974Z,1.14
2023-03-04T02:31:50.344Z,1.18
2023-03-04T02:34:33.004Z,1.05
2023-03-04T02:37:00.444Z,1.08
2023-03-04T02:39:41.386Z,1.06
2023-03-04T02:42:13.397Z,1.02
2023-03-04T02:44:47.686Z,0.88
2023-03-04T02:47:26.023Z,0.92
2023-03-04T02:49:52.593Z,1.01
2023-03-04T02:52:26.002Z,0.98
2023-03-04T02:54:52.501Z,1.05
2023-03-04T02:57:19.001Z,1.09
2023-03-04T02:59:45.495Z,1.10
2023-03-04T03:02:12.366Z,1.21
2023-03-04T03:04:41.027Z,1.28
2023-03-04T03:07:22.201Z,1.17
2023-03-04T03:09:48.723Z,1.24
2023-03-04T03:12:15.192Z,1.26
2023-03-04T03:14:41.654Z,1.20
2023-03-04T03:17:08.161Z,1.27
2023-03-04T03:19:34.647Z,1.25
2023-03-04T03:22:01.197Z,1.24
2023-03-04T03:24:27.716Z,1.20
2023-03-04T03:26:54.189Z,1.33
2023-03-04T03:29:20.632Z,1.37
2023-03-04T03:31:47.138Z,1.26
2023-03-04T03:34:13.654Z,1.28
2023-03-04T03:36:40.204Z,1.40
2023-03-04T03:39:06.737Z,1.39
2023-03-04T03:41:36.250Z,1.46
2023-03-04T03:44:02.842Z,1.54
2023-03-04T03:46:29.910Z,1.62
2023-03-04T03:48:56.386Z,1.64
2023-03-04T03:51:22.909Z,1.57
2023-03-04T03:53:52.144Z,1.45
2023-03-04T03:56:18.677Z,1.36
2023-03-04T03:58:45.170Z,1.45
2023-03-04T04:01:11.638Z,1.46
2023-03-04T04:03:38.127Z,1.56
2023-03-04T04:06:04.919Z,1.49
2023-03-04T04:08:31.686Z,1.56
2023-03-04T04:10:58.263Z,1.56
2023-03-04T04:13:26.793Z,1.57
2023-03-04T04:15:54.241Z,1.51
2023-03-04T04:18:20.788Z,1.52
2023-03-04T04:20:56.280Z,1.46
2023-03-04T04:23:23.022Z,1.50
2023-03-04T04:25:49.536Z,1.46
2023-03-04T04:28:16.008Z,1.49
2023-03-04T04:30:51.379Z,1.49
2023-03-04T04:33:21.018Z,1.41
2023-03-04T04:35:47.558Z,1.54
2023-03-04T04:38:14.075Z,1.63
2023-03-04T04:40:40.748Z,1.61
2023-03-04T04:43:07.204Z,1.62
2023-03-04T04:45:34.476Z,1.55
2023-03-04T04:48:00.977Z,1.57
2023-03-04T04:50:32.798Z,1.47
2023-03-04T04:53:07.723Z,1.39
2023-03-04T04:55:34.786Z,1.37
2023-03-04T04:58:01.284Z,1.42
2023-03-04T05:00:27.779Z,1.36
2023-03-04T05:02:54.350Z,1.31
2023-03-04T05:05:20.875Z,1.56
2023-03-04T05:07:47.334Z,1.70
2023-03-04T05:10:13.816Z,1.82
2023-03-04T05:12:40.283Z,1.83
2023-03-04T05:15:08.383Z,2.00
2023-03-04T05:17:34.921Z,2.10
2023-03-04T05:20:01.485Z,2.11
2023-03-04T05:22:27.943Z,2.10
2023-03-04T05:24:57.260Z,2.14
2023-03-04T05:27:23.858Z,2.25
2023-03-04T05:29:58.460Z,2.29
2023-03-04T05:32:25.224Z,2.22
2023-03-04T05:34:51.770Z,2.21
2023-03-04T05:37:18.217Z,2.14
2023-03-04T05:39:44.838Z,2.26
2023-03-04T05:42:11.275Z,2.21
2023-03-04T05:44:40.540Z,2.19
2023-03-04T05:47:06.998Z,2.30
2023-03-04T05:49:33.493Z,2.31
2023-03-04T05:51:59.995Z,2.37
2023-03-04T05:54:26.524Z,2.38
2023-03-04T05:56:53.057Z,2.39
2023-03-04T05:59:20.562Z,2.54
2023-03-04T06:01:48.318Z,2.45
2023-03-04T06:04:14.872Z,2.51
2023-03-04T06:06:41.438Z,2.49
2023-03-04T06:09:07.964Z,2.55
2023-03-04T06:11:37.011Z,2.47
2023-03-04T06:14:03.924Z,2.58
2023-03-04T06:16:30.471Z,2.52
2023-03-04T06:18:57.067Z,2.48
2023-03-04T06:21:24.029Z,2.53
2023-03-04T06:23:50.560Z,2.50
2023-03-04T06:26:22.754Z,2.53
2023-03-04T06:28:49.305Z,2.50
2023-03-04T06:31:16.029Z,2.54
2023-03-04T06:33:42.640Z,2.62
2023-03-04T06:36:11.956Z,2.65
2023-03-04T06:38:38.525Z,2.74
2023-03-04T06:41:15.584Z,2.65
2023-03-04T06:43:46.510Z,2.64
2023-03-04T06:46:13.141Z,2.69
2023-03-04T06:48:39.776Z,2.89
2023-03-04T06:51:09.026Z,2.89
2023-03-04T06:53:51.413Z,2.87
2023-03-04T06:56:17.966Z,2.88
2023-03-04T06:58:46.226Z,2.84
2023-03-04T07:01:24.009Z,2.53
2023-03-04T07:03:52.824Z,2.56
2023-03-04T07:06:25.030Z,2.68
2023-03-04T07:08:52.324Z,2.86
2023-03-04T07:11:20.592Z,2.90
2023-03-04T07:13:47.098Z,2.92
2023-03-04T07:16:21.907Z,2.96
2023-03-04T07:18:49.090Z,3.05
2023-03-04T07:21:17.490Z,2.99
2023-03-04T07:23:44.240Z,2.97
2023-03-04T07:26:10.851Z,2.97
2023-03-04T07:28:45.013Z,3.06
2023-03-04T07:31:21.880Z,3.07
2023-03-04T07:33:48.646Z,3.04
2023-03-04T07:36:15.368Z,3.02
2023-03-04T07:38:59.269Z,2.88
2023-03-04T07:41:28.126Z,2.95
2023-03-04T07:43:57.836Z,3.03
2023-03-04T07:46:26.376Z,3.09
2023-03-04T07:48:54.677Z,3.03
2023-03-04T07:51:25.598Z,2.99
2023-03-04T07:53:57.289Z,3.02
2023-03-04T07:56:30.449Z,3.13
2023-03-04T07:58:57.723Z,3.14
2023-03-04T08:01:31.655Z,3.17
2023-03-04T08:03:59.608Z,3.28
2023-03-04T08:06:27.217Z,3.35
2023-03-04T08:09:01.209Z,3.10
2023-03-04T08:11:29.774Z,3.12
2023-03-04T08:13:56.976Z,3.26
2023-03-04T08:16:25.403Z,3.22
2023-03-04T08:18:55.723Z,3.32
2023-03-04T08:21:24.646Z,3.48
2023-03-04T08:23:52.315Z,3.54
2023-03-04T08:26:26.090Z,3.60
2023-03-04T08:28:54.383Z,3.48
2023-03-04T08:31:21.297Z,3.55
2023-03-04T08:33:48.239Z,3.60
2023-03-04T08:36:15.883Z,3.61
2023-03-04T08:38:43.112Z,3.57
2023-03-04T08:41:10.014Z,3.53
2023-03-04T08:43:36.762Z,3.60
2023-03-04T08:46:03.823Z,3.70
2023-03-04T08:48:30.369Z,3.84
2023-03-04T08:50:56.834Z,3.86
2023-03-04T08:53:24.041Z,3.89
2023-03-04T08:55:52.756Z,4.00
2023-03-04T08:58:19.756Z,4.14
2023-03-04T09:00:49.309Z,4.03
2023-03-04T09:03:19.360Z,4.05
2023-03-04T09:05:48.454Z,3.88
2023-03-04T09:08:16.813Z,3.72
2023-03-04T09:10:44.753Z,3.68
2023-03-04T09:13:12.001Z,3.84
2023-03-04T09:16:00.158Z,3.94
2023-03-04T09:18:27.871Z,4.09
2023-03-04T09:20:54.798Z,4.20
2023-03-04T09:23:22.271Z,4.28
2023-03-04T09:25:49.784Z,3.95
2023-03-04T09:28:18.333Z,4.08
2023-03-04T09:30:49.581Z,4.19
2023-03-04T09:33:27.063Z,4.31
2023-03-04T09:35:53.529Z,4.34
2023-03-04T09:38:20.025Z,4.42
2023-03-04T09:40:49.399Z,4.48
2023-03-04T09:43:29.897Z,4.41
2023-03-04T09:46:05.178Z,4.60
2023-03-04T09:48:49.884Z,4.77
2023-03-04T09:51:23.606Z,4.69
2023-03-04T09:54:25.963Z,4.67
2023-03-04T09:57:02.117Z,4.68
2023-03-04T09:59:56.604Z,4.63
2023-03-04T10:02:59.343Z,4.69
2023-03-04T10:05:29.583Z,4.82
2023-03-04T10:08:03.794Z,5.05
2023-03-04T10:10:40.367Z,5.01
2023-03-04T10:13:21.228Z,5.26
2023-03-04T10:15:51.129Z,5.51
2023-03-04T10:18:44.989Z,5.53
2023-03-04T10:21:29.384Z,5.69
2023-03-04T10:23:59.693Z,5.77
2023-03-04T10:26:33.310Z,5.90
2023-03-04T10:29:02.877Z,5.80
2023-03-04T10:31:37.346Z,5.46
2023-03-04T10:34:11.850Z,5.68
2023-03-04T10:36:56.557Z,5.72
2023-03-04T10:39:31.644Z,5.71
2023-03-04T10:42:23.978Z,5.80
2023-03-04T10:44:58.400Z,5.99
2023-03-04T10:47:28.628Z,6.10
2023-03-04T10:50:05.302Z,6.22
2023-03-04T10:52:36.144Z,5.94
2023-03-04T10:55:07.537Z,6.13
2023-03-04T10:57:43.467Z,6.14
2023-03-04T11:00:25.725Z,6.21
2023-03-04T11:02:52.323Z,6.20
2023-03-04T11:05:23.118Z,6.19
2023-03-04T11:07:56.960Z,6.17
2023-03-04T11:10:36.153Z,6.07
2023-03-04T11:13:11.427Z,6.19
2023-03-04T11:16:02.488Z,6.24
2023-03-04T11:19:04.166Z,6.24
2023-03-04T11:21:40.331Z,6.28
2023-03-04T11:24:27.440Z,6.15
2023-03-04T11:27:20.120Z,6.31
2023-03-04T11:29:57.673Z,6.14
2023-03-04T11:32:54.375Z,6.20
2023-03-04T11:35:53.668Z,6.09
2023-03-04T11:38:39.421Z,6.14
2023-03-04T11:41:41.319Z,6.18
2023-03-04T11:44:20.994Z,6.23
2023-03-04T11:47:19.278Z,6.33
2023-03-04T11:50:03.052Z,6.43
2023-03-04T11:53:01.745Z,6.37
2023-03-04T11:56:12.026Z,6.38
2023-03-04T11:59:00.146Z,6.16
2023-03-04T12:01:50.990Z,6.12
2023-03-04T12:04:44.541Z,6.16
2023-03-04T12:07:53.986Z,6.16
2023-03-04T12:10:31.788Z,6.03
2023-03-04T12:13:18.263Z,5.96
2023-03-04T12:16:39.355Z,5.80
2023-03-04T12:19:29.118Z,5.96
2023-03-04T12:22:21.333Z,6.10
2023-03-04T12:25:23.447Z,6.17
2023-03-04T12:28:10.361Z,6.24
2023-03-04T12:30:45.699Z,6.36
2023-03-04T12:33:36.303Z,6.43
2023-03-04T12:36:25.445Z,6.38
2023-03-04T12:39:17.162Z,6.46
2023-03-04T12:41:53.452Z,6.46
2023-03-04T12:44:21.542Z,6.53
2023-03-04T12:47:08.694Z,6.55
2023-03-04T12:49:45.959Z,6.16
2023-03-04T12:53:16.196Z,6.04
2023-03-04T12:55:47.066Z,6.20
2023-03-04T12:58:29.813Z,5.97
2023-03-04T13:01:23.400Z,5.99
2023-03-04T13:04:09.693Z,5.76
2023-03-04T13:07:31.770Z,5.94
2023-03-04T13:10:10.219Z,6.09
2023-03-04T13:12:50.366Z,6.16
2023-03-04T13:15:21.195Z,6.22
2023-03-04T13:17:51.711Z,6.18
2023-03-04T13:20:31.612Z,6.32
2023-03-04T13:23:04.617Z,6.12
2023-03-04T13:25:46.699Z,6.11
2023-03-04T13:28:19.423Z,6.18
2023-03-04T13:30:45.839Z,6.26
2023-03-04T13:33:14.901Z,6.14
2023-03-04T13:36:05.162Z,6.06
2023-03-04T13:38:31.668Z,6.04
2023-03-04T13:41:27.491Z,6.08
2023-03-04T13:43:56.246Z,6.25
2023-03-04T13:46:23.690Z,6.41
2023-03-04T13:48:50.239Z,6.25
2023-03-04T13:51:44.135Z,5.94
2023-03-04T13:54:24.136Z,6.04
2023-03-04T13:57:24.568Z,6.18
2023-03-04T13:59:57.036Z,6.14
2023-03-04T14:02:26.149Z,6.27
2023-03-04T14:05:01.572Z,6.20
2023-03-04T14:07:36.988Z,6.07
2023-03-04T14:10:27.884Z,5.84
2023-03-04T14:12:58.872Z,5.90
2023-03-04T14:15:29.562Z,5.92
2023-03-04T14:18:02.588Z,5.95
2023-03-04T14:20:48.623Z,5.99
2023-03-04T14:23:32.560Z,6.05
2023-03-04T14:26:17.645Z,6.00
2023-03-04T14:28:57.261Z,5.95
2023-03-04T14:31:39.244Z,6.00
2023-03-04T14:34:26.517Z,5.83
2023-03-04T14:36:54.550Z,6.00
2023-03-04T14:39:26.467Z,5.99
2023-03-04T14:41:55.821Z,5.99
2023-03-04T14:44:35.646Z,6.17
2023-03-04T14:47:24.480Z,6.10
2023-03-04T14:49:51.480Z,6.07
2023-03-04T14:52:43.859Z,5.98
2023-03-04T14:55:22.276Z,6.02
2023-03-04T14:57:58.250Z,6.14
2023-03-04T15:00:27.010Z,6.07
2023-03-04T15:03:21.808Z,6.00
2023-03-04T15:05:49.604Z,6.05
2023-03-04T15:08:28.028Z,5.90
2023-03-04T15:10:58.644Z,5.82
2023-03-04T15:13:51.560Z,5.76
2023-03-04T15:16:56.220Z,5.80
2023-03-04T15:19:30.008Z,5.67
2023-03-04T15:22:07.206Z,5.72
2023-03-04T15:24:33.657Z,5.68
2023-03-04T15:27:03.253Z,5.62
2023-03-04T15:29:32.352Z,5.63
2023-03-04T15:32:00.785Z,5.68
2023-03-04T15:34:27.543Z,5.53
2023-03-04T15:36:57.921Z,5.58
2023-03-04T15:39:25.265Z,5.59
2023-03-04T15:41:51.805Z,5.75
2023-03-04T15:44:18.332Z,5.80
2023-03-04T15:46:44.928Z,5.79
2023-03-04T15:49:11.822Z,5.72
2023-03-04T15:51:38.641Z,5.65
2023-03-04T15:54:15.324Z,5.56
2023-03-04T15:56:41.805Z,5.18
2023-03-04T15:59:17.949Z,5.16
2023-03-04T16:01:44.932Z,5.25
2023-03-04T16:04:18.305Z,5.43
2023-03-04T16:06:48.346Z,5.53
2023-03-04T16:09:19.663Z,5.58
2023-03-04T16:11:47.568Z,5.51
2023-03-04T16:14:16.165Z,5.40
2023-03-04T16:16:44.007Z,5.46
2023-03-04T16:19:10.547Z,5.55
2023-03-04T16:21:37.067Z,5.55
2023-03-04T16:24:03.921Z,5.63
2023-03-04T16:26:31.300Z,5.58
2023-03-04T16:28:57.761Z,5.60
2023-03-04T16:31:24.308Z,5.39
2023-03-04T16:33:50.885Z,5.16
2023-03-04T16:36:33.159Z,5.22
2023-03-04T16:41:41.076Z,5.33
2023-03-04T16:44:13.906Z,5.32
2023-03-04T16:46:41.069Z,5.33
2023-03-04T16:49:07.602Z,5.32
2023-03-04T16:51:45.224Z,5.38
2023-03-04T16:54:22.385Z,5.46
2023-03-04T16:56:48.863Z,5.51
2023-03-04T16:59:16.766Z,5.47
2023-03-04T17:01:45.475Z,5.39
2023-03-04T17:04:12.129Z,5.37
2023-03-04T17:06:39.789Z,5.31
2023-03-04T17:09:11.202Z,5.29
2023-03-04T17:11:38.303Z,5.23
2023-03-04T17:14:05.606Z,5.27
2023-03-04T17:16:32.996Z,5.19
2023-03-04T17:19:00.042Z,5.21
2023-03-04T17:21:27.662Z,5.24
2023-03-04T17:23:54.828Z,5.32
2023-03-04T17:26:22.976Z,5.30
2023-03-04T17:28:51.491Z,5.32
2023-03-04T17:31:20.674Z,5.34
2023-03-04T17:33:48.175Z,5.32
2023-03-04T17:36:23.741Z,5.26
2023-03-04T17:38:53.285Z,5.16
2023-03-04T17:41:21.273Z,5.15
2023-03-04T17:43:51.325Z,5.10
2023-03-04T17:46:22.128Z,5.07
2023-03-04T17:48:53.622Z,5.00
2023-03-04T17:51:41.051Z,5.06
2023-03-04T17:54:09.515Z,5.12
2023-03-04T17:56:39.303Z,5.20
2023-03-04T17:59:08.712Z,5.21
2023-03-04T18:01:38.253Z,5.11
2023-03-04T18:04:05.293Z,4.99
2023-03-04T18:06:31.844Z,5.07
2023-03-04T18:09:00.949Z,5.10
2023-03-04T18:11:28.310Z,5.12
2023-03-04T18:13:56.645Z,5.01
2023-03-04T18:16:27.245Z,4.92
2023-03-04T18:18:58.983Z,4.94
2023-03-04T18:21:28.812Z,4.93
2023-03-04T18:23:56.873Z,4.95
2023-03-04T18:26:25.176Z,5.00
2023-03-04T18:28:54.697Z,5.02
2023-03-04T18:31:25.064Z,5.03
2023-03-04T18:33:53.024Z,4.91
2023-03-04T18:36:20.380Z,4.84
2023-03-04T18:38:46.884Z,4.81
2023-03-04T18:41:15.705Z,4.80
2023-03-04T18:43:42.769Z,4.84
2023-03-04T18:46:28.737Z,4.83
2023-03-04T18:49:12.346Z,4.85
2023-03-04T18:51:38.967Z,4.82
2023-03-04T18:54:05.832Z,4.82
2023-03-04T18:56:46.024Z,4.87
2023-03-04T18:59:19.990Z,4.84
2023-03-04T19:01:51.063Z,4.87
2023-03-04T19:04:22.363Z,4.91
2023-03-04T19:06:49.373Z,4.95
2023-03-04T19:09:18.908Z,5.00
2023-03-04T19:11:45.506Z,4.93
2023-03-04T19:14:12.139Z,4.96
2023-03-04T19:16:39.830Z,4.96
2023-03-04T19:19:07.360Z,4.89
2023-03-04T19:21:38.598Z,4.84
2023-03-04T19:24:06.112Z,4.88
2023-03-04T19:26:32.856Z,4.76
2023-03-04T19:28:59.378Z,4.76
2023-03-04T19:31:25.963Z,4.76
2023-03-04T19:33:52.538Z,4.79
2023-03-04T19:36:19.086Z,4.74
2023-03-04T19:38:45.635Z,4.65
2023-03-04T19:41:17.316Z,4.72
2023-03-04T19:43:45.928Z,4.85
2023-03-04T19:46:13.801Z,4.89
2023-03-04T19:48:41.053Z,4.93
2023-03-04T19:51:26.058Z,4.73
2023-03-04T19:53:54.499Z,4.75
2023-03-04T19:56:23.516Z,4.83
2023-03-04T19:58:53.655Z,4.96
2023-03-04T20:01:27.965Z,4.61
2023-03-04T20:04:02.176Z,4.56
2023-03-04T20:06:30.455Z,4.58
2023-03-04T20:09:00.504Z,4.65
2023-03-04T20:11:29.807Z,4.64
2023-03-04T20:13:58.429Z,4.66
2023-03-04T20:16:25.742Z,4.67
2023-03-04T20:18:53.159Z,4.84
2023-03-04T20:21:20.468Z,4.79
2023-03-04T20:23:47.204Z,4.44
2023-03-04T20:26:13.676Z,4.60
2023-03-04T20:28:40.163Z,4.63
2023-03-04T20:31:29.603Z,4.56
2023-03-04T20:34:00.157Z,4.65
2023-03-04T20:36:29.832Z,4.70
2023-03-04T20:39:02.375Z,4.76
2023-03-04T20:41:29.540Z,4.67
2023-03-04T20:43:56.064Z,4.71
2023-03-04T20:46:36.812Z,4.65
2023-03-04T20:49:13.982Z,4.40
2023-03-04T20:51:40.790Z,4.41
2023-03-04T20:54:08.699Z,4.38
2023-03-04T20:56:37.098Z,4.44
2023-03-04T20:59:08.100Z,4.34
2023-03-04T21:01:37.346Z,4.29
2023-03-04T21:04:05.017Z,4.32
2023-03-04T21:06:32.703Z,4.41
2023-03-04T21:09:06.872Z,4.31
2023-03-04T21:11:40.056Z,4.21
2023-03-04T21:14:11.231Z,4.04
2023-03-04T21:16:37.745Z,4.21
2023-03-04T21:19:04.299Z,4.24
2023-03-04T21:21:31.146Z,4.30
2023-03-04T21:23:59.864Z,4.22
2023-03-04T21:26:26.834Z,4.13
2023-03-04T21:28:54.609Z,4.18
2023-03-04T21:31:34.292Z,4.10
2023-03-04T21:34:00.877Z,4.13
2023-03-04T21:36:27.515Z,4.19
2023-03-04T21:38:54.301Z,4.02
2023-03-04T21:41:24.975Z,4.02
2023-03-04T21:43:52.178Z,4.06
2023-03-04T21:46:19.203Z,4.20
2023-03-04T21:48:47.712Z,4.23
2023-03-04T21:51:16.774Z,4.23
2023-03-04T21:53:43.975Z,4.27
2023-03-04T21:56:12.416Z,4.34
2023-03-04T21:58:42.235Z,4.24
2023-03-04T22:01:21.315Z,4.17
2023-03-04T22:03:49.867Z,4.20
2023-03-04T22:06:21.818Z,4.25
2023-03-04T22:08:49.674Z,4.22
2023-03-04T22:11:16.629Z,4.15
2023-03-04T22:13:43.674Z,4.27
2023-03-04T22:16:10.661Z,4.25
2023-03-04T22:18:40.521Z,4.25
2023-03-04T22:21:11.648Z,4.22
2023-03-04T22:23:39.507Z,4.08
2023-03-04T22:26:13.195Z,4.09
2023-03-04T22:28:40.557Z,4.13
2023-03-04T22:31:31.476Z,4.05
2023-03-04T22:34:10.392Z,4.10
2023-03-04T22:36:41.177Z,4.12
2023-03-04T22:39:16.120Z,4.19
2023-03-04T22:41:42.645Z,4.09
2023-03-04T22:44:09.140Z,4.12
2023-03-04T22:46:38.778Z,4.15
2023-03-04T22:49:09.944Z,4.13
2023-03-04T22:51:37.322Z,4.13
2023-03-04T22:54:04.210Z,4.06
2023-03-04T22:56:30.820Z,4.05
2023-03-04T22:58:57.427Z,4.11
2023-03-04T23:01:24.616Z,4.13
2023-03-04T23:03:51.353Z,4.12
2023-03-04T23:06:22.139Z,4.15
2023-03-04T23:08:50.607Z,3.96
2023-03-04T23:11:21.796Z,4.04
2023-03-04T23:13:49.955Z,4.00
2023-03-04T23:16:18.781Z,3.99
2023-03-04T23:18:47.627Z,3.95
2023-03-04T23:21:21.840Z,3.86
2023-03-04T23:23:49.761Z,3.77
2023-03-04T23:26:24.480Z,3.81
2023-03-04T23:28:51.800Z,3.84
2023-03-04T23:31:18.901Z,3.79
2023-03-04T23:33:48.175Z,3.87
2023-03-04T23:36:18.676Z,3.97
2023-03-04T23:38:48.692Z,3.89
2023-03-04T23:41:19.761Z,3.79
2023-03-04T23:43:47.568Z,3.89
2023-03-04T23:46:15.280Z,3.89
2023-03-04T23:48:46.186Z,3.82
2023-03-04T23:51:16.218Z,3.84
2023-03-04T23:53:43.383Z,3.66
2023-03-04T23:56:20.239Z,3.54
2023-03-04T23:58:48.077Z,3.41
